createdAt,value
2022-08-28T00:02:01.976Z,99.90
2022-08-28T00:04:29.726Z,99.90
2022-08-28T00:06:56.784Z,99.90
2022-08-28T00:09:24.334Z,99.90
2022-08-28T00:11:51.438Z,99.90
2022-08-28T00:14:21.122Z,99.90
2022-08-28T00:16:49.569Z,99.90
2022-08-28T00:19:24.105Z,99.90
2022-08-28T00:21:52.306Z,99.90
2022-08-28T00:24:19.415Z,99.90
2022-08-28T00:27:05.165Z,99.90
2022-08-28T00:29:32.539Z,99.90
2022-08-28T00:31:59.926Z,99.90
2022-08-28T00:34:33.002Z,99.90
2022-08-28T00:37:01.034Z,99.90
2022-08-28T00:39:28.608Z,99.90
2022-08-28T00:41:58.085Z,99.90
2022-08-28T00:44:28.295Z,99.90
2022-08-28T00:46:57.726Z,99.90
2022-08-28T00:49:28.531Z,99.90
2022-08-28T00:52:12.450Z,99.90
2022-08-28T00:54:47.839Z,99.90
2022-08-28T00:57:28.448Z,99.90
2022-08-28T00:59:55.616Z,99.90
2022-08-28T01:02:22.759Z,99.90
2022-08-28T01:04:51.049Z,99.90
2022-08-28T01:07:18.321Z,99.90
2022-08-28T01:09:49.298Z,99.90
2022-08-28T01:12:24.547Z,99.90
2022-08-28T01:14:54.992Z,99.90
2022-08-28T01:17:24.855Z,99.90
2022-08-28T01:19:57.570Z,99.90
2022-08-28T01:22:29.469Z,99.90
2022-08-28T01:25:01.044Z,99.90
2022-08-28T01:27:28.397Z,99.90
2022-08-28T01:29:55.560Z,99.90
2022-08-28T01:32:38.551Z,99.90
2022-08-28T01:35:10.621Z,99.90
2022-08-28T01:37:38.263Z,99.90
2022-08-28T01:40:07.883Z,99.90
2022-08-28T01:42:39.490Z,99.90
2022-08-28T01:45:09.877Z,99.90
2022-08-28T01:47:41.613Z,99.90
2022-08-28T01:50:10.838Z,99.90
2022-08-28T01:52:39.823Z,99.90
2022-08-28T01:55:08.325Z,99.90
2022-08-28T01:57:36.073Z,99.90
2022-08-28T02:00:03.407Z,99.90
2022-08-28T02:02:40.036Z,99.90
2022-08-28T02:05:08.823Z,99.90
2022-08-28T02:07:36.469Z,99.90
2022-08-28T02:10:06.040Z,99.90
2022-08-28T02:12:33.098Z,99.90
2022-08-28T02:15:00.690Z,99.90
2022-08-28T02:17:27.769Z,99.90
2022-08-28T02:19:54.847Z,99.90
2022-08-28T02:22:21.917Z,99.90
2022-08-28T02:24:48.931Z,99.90
2022-08-28T02:27:15.990Z,99.90
2022-08-28T02:29:44.243Z,99.90
2022-08-28T02:32:12.595Z,99.90
2022-08-28T02:34:40.538Z,99.90
2022-08-28T02:37:09.186Z,99.90
2022-08-28T02:39:37.783Z,99.90
2022-08-28T02:42:04.919Z,99.90
2022-08-28T02:44:32.259Z,99.90
2022-08-28T02:46:59.352Z,99.90
2022-08-28T02:49:26.912Z,99.90
2022-08-28T02:52:00.117Z,99.90
2022-08-28T02:54:27.172Z,99.90
2022-08-28T02:56:54.827Z,99.90
2022-08-28T02:59:22.401Z,99.90
2022-08-28T03:01:49.573Z,99.90
2022-08-28T03:04:17.289Z,99.90
2022-08-28T03:06:44.694Z,99.90
2022-08-28T03:09:11.847Z,99.90
2022-08-28T03:11:41.357Z,99.90
2022-08-28T03:14:08.585Z,99.90
2022-08-28T03:16:35.794Z,99.90
2022-08-28T03:19:04.090Z,99.90
2022-08-28T03:21:31.127Z,99.90
2022-08-28T03:23:58.280Z,99.90
2022-08-28T03:26:25.505Z,99.90
2022-08-28T03:28:54.229Z,99.90
2022-08-28T03:31:28.270Z,99.90
2022-08-28T03:33:56.121Z,99.90
2022-08-28T03:36:26.338Z,99.90
2022-08-28T03:38:54.929Z,99.90
2022-08-28T03:41:24.534Z,99.90
2022-08-28T03:43:52.217Z,99.90
2022-08-28T03:46:23.861Z,99.90
2022-08-28T03:48:52.546Z,99.90
2022-08-28T03:51:28.000Z,99.90
2022-08-28T03:53:58.405Z,99.90
2022-08-28T03:56:27.280Z,99.90
2022-08-28T03:58:57.580Z,99.90
2022-08-28T04:01:25.167Z,99.90
2022-08-28T04:03:52.592Z,99.90
2022-08-28T04:06:20.263Z,99.90
2022-08-28T04:08:47.979Z,99.90
2022-08-28T04:11:15.195Z,99.90
2022-08-28T04:13:42.215Z,99.90
2022-08-28T04:16:12.559Z,99.90
2022-08-28T04:18:41.409Z,99.90
2022-08-28T04:21:20.928Z,99.90
2022-08-28T04:23:48.812Z,99.90
2022-08-28T04:26:19.650Z,99.90
2022-08-28T04:28:48.039Z,99.90
2022-08-28T04:31:16.371Z,99.90
2022-08-28T04:33:43.775Z,99.90
2022-08-28T04:36:14.068Z,99.90
2022-08-28T04:38:44.088Z,99.90
2022-08-28T04:41:13.808Z,99.90
2022-08-28T04:43:41.140Z,99.90
2022-08-28T04:46:12.504Z,99.90
2022-08-28T04:48:40.969Z,99.90
2022-08-28T04:51:09.931Z,99.90
2022-08-28T04:53:38.042Z,99.90
2022-08-28T04:56:08.303Z,99.90
2022-08-28T04:58:35.802Z,99.90
2022-08-28T05:01:19.038Z,99.90
2022-08-28T05:03:48.153Z,99.90
2022-08-28T05:06:16.532Z,99.90
2022-08-28T05:08:43.651Z,99.90
2022-08-28T05:11:33.383Z,99.90
2022-08-28T05:14:01.308Z,99.90
2022-08-28T05:16:28.618Z,99.90
2022-08-28T05:19:00.496Z,99.90
2022-08-28T05:21:28.367Z,99.90
2022-08-28T05:23:57.698Z,99.90
2022-08-28T05:26:27.234Z,99.90
2022-08-28T05:28:56.250Z,99.90
2022-08-28T05:31:24.737Z,99.90
2022-08-28T05:33:52.987Z,99.90
2022-08-28T05:36:22.862Z,99.90
2022-08-28T05:38:53.361Z,99.90
2022-08-28T05:41:24.178Z,99.90
2022-08-28T05:43:53.241Z,99.90
2022-08-28T05:46:21.425Z,99.90
2022-08-28T05:48:49.452Z,99.90
2022-08-28T05:51:19.595Z,99.90
2022-08-28T05:53:50.123Z,99.90
2022-08-28T05:56:30.088Z,99.90
2022-08-28T05:59:01.903Z,99.90
2022-08-28T06:01:32.002Z,99.90
2022-08-28T06:04:02.073Z,99.90
2022-08-28T06:06:31.574Z,99.90
2022-08-28T06:09:00.577Z,99.90
2022-08-28T06:11:30.989Z,99.90
2022-08-28T06:14:02.448Z,99.90
2022-08-28T06:16:31.824Z,99.90
2022-08-28T06:19:01.755Z,99.90
2022-08-28T06:21:29.564Z,99.90
2022-08-28T06:23:57.115Z,99.90
2022-08-28T06:26:24.300Z,99.90
2022-08-28T06:28:52.548Z,99.90
2022-08-28T06:31:23.426Z,99.90
2022-08-28T06:33:51.385Z,99.90
2022-08-28T06:36:18.514Z,99.90
2022-08-28T06:38:46.893Z,99.90
2022-08-28T06:41:15.815Z,99.90
2022-08-28T06:43:43.265Z,99.90
2022-08-28T06:46:10.399Z,99.90
2022-08-28T06:48:37.725Z,99.90
2022-08-28T06:51:10.316Z,99.90
2022-08-28T06:53:43.170Z,99.90
2022-08-28T06:56:25.751Z,99.90
2022-08-28T06:58:56.920Z,99.90
2022-08-28T07:01:30.269Z,99.90
2022-08-28T07:04:15.693Z,99.90
2022-08-28T07:06:47.064Z,99.90
2022-08-28T07:09:14.820Z,99.90
2022-08-28T07:11:46.980Z,99.90
2022-08-28T07:14:14.131Z,99.90
2022-08-28T07:16:41.389Z,99.90
2022-08-28T07:19:10.592Z,99.90
2022-08-28T07:21:40.132Z,99.90
2022-08-28T07:24:09.670Z,99.90
2022-08-28T07:26:37.607Z,99.90
2022-08-28T07:29:09.917Z,99.90
2022-08-28T07:31:41.568Z,99.90
2022-08-28T07:34:10.734Z,99.90
2022-08-28T07:36:38.644Z,99.90
2022-08-28T07:39:06.897Z,99.90
2022-08-28T07:41:37.741Z,99.90
2022-08-28T07:44:24.109Z,99.90
2022-08-28T07:46:59.290Z,99.90
2022-08-28T07:49:27.493Z,99.90
2022-08-28T07:51:54.753Z,99.90
2022-08-28T07:54:23.113Z,99.90
2022-08-28T07:56:50.809Z,99.90
2022-08-28T07:59:19.113Z,99.90
2022-08-28T08:01:48.429Z,99.90
2022-08-28T08:04:17.380Z,99.90
2022-08-28T08:06:45.470Z,99.90
2022-08-28T08:09:16.195Z,99.90
2022-08-28T08:11:43.376Z,99.90
2022-08-28T08:14:11.504Z,99.90
2022-08-28T08:16:43.811Z,99.90
2022-08-28T08:19:15.423Z,99.90
2022-08-28T08:21:53.917Z,99.90
2022-08-28T08:24:26.204Z,99.90
2022-08-28T08:26:59.978Z,99.90
2022-08-28T08:29:30.112Z,99.90
2022-08-28T08:32:06.035Z,99.90
2022-08-28T08:34:36.718Z,99.90
2022-08-28T08:37:05.916Z,99.90
2022-08-28T08:39:37.264Z,99.90
2022-08-28T08:42:07.774Z,99.90
2022-08-28T08:44:43.656Z,99.90
2022-08-28T08:47:38.798Z,99.90
2022-08-28T08:50:20.657Z,99.90
2022-08-28T08:53:05.846Z,99.90
2022-08-28T08:55:54.217Z,99.90
2022-08-28T08:58:47.932Z,99.90
2022-08-28T09:01:25.833Z,99.90
2022-08-28T09:04:09.233Z,99.90
2022-08-28T09:06:52.068Z,99.90
2022-08-28T09:09:42.088Z,99.90
2022-08-28T09:12:15.602Z,99.90
2022-08-28T09:15:05.434Z,99.90
2022-08-28T09:17:37.753Z,99.90
2022-08-28T09:20:10.432Z,99.90
2022-08-28T09:22:42.311Z,99.90
2022-08-28T09:25:12.426Z,99.90
2022-08-28T09:27:52.854Z,99.90
2022-08-28T09:30:31.615Z,99.90
2022-08-28T09:33:01.405Z,99.90
2022-08-28T09:35:35.318Z,99.90
2022-08-28T09:38:27.658Z,99.90
2022-08-28T09:41:47.465Z,99.90
2022-08-28T09:44:15.469Z,99.90
2022-08-28T09:46:50.332Z,99.90
2022-08-28T09:49:25.174Z,99.90
2022-08-28T09:51:52.299Z,99.90
2022-08-28T09:54:25.993Z,99.90
2022-08-28T09:56:53.734Z,99.90
2022-08-28T09:59:24.043Z,99.90
2022-08-28T10:02:11.678Z,99.90
2022-08-28T10:04:57.785Z,99.90
2022-08-28T10:07:57.906Z,99.90
2022-08-28T10:10:54.418Z,99.90
2022-08-28T10:13:39.729Z,99.90
2022-08-28T10:16:33.685Z,99.90
2022-08-28T10:19:28.435Z,99.90
2022-08-28T10:22:07.380Z,99.90
2022-08-28T10:25:11.577Z,99.90
2022-08-28T10:28:16.663Z,99.90
2022-08-28T10:31:09.725Z,99.90
2022-08-28T10:33:51.903Z,99.90
2022-08-28T10:36:34.032Z,99.90
2022-08-28T10:39:40.223Z,99.90
2022-08-28T10:42:07.931Z,99.90
2022-08-28T10:44:55.219Z,99.90
2022-08-28T10:47:25.859Z,99.90
2022-08-28T10:50:01.931Z,99.90
2022-08-28T10:53:00.396Z,99.90
2022-08-28T10:56:02.952Z,99.90
2022-08-28T10:58:35.928Z,99.90
2022-08-28T11:01:10.094Z,99.90
2022-08-28T11:03:48.074Z,99.90
2022-08-28T11:06:27.152Z,99.90
2022-08-28T11:08:58.856Z,99.90
2022-08-28T11:11:48.810Z,99.90
2022-08-28T11:14:47.581Z,99.90
2022-08-28T11:17:27.941Z,99.90
2022-08-28T11:20:13.319Z,99.90
2022-08-28T11:23:15.832Z,99.90
2022-08-28T11:25:59.051Z,99.90
2022-08-28T11:28:26.189Z,99.90
2022-08-28T11:31:05.378Z,99.90
2022-08-28T11:33:41.523Z,99.90
2022-08-28T11:36:13.077Z,99.90
2022-08-28T11:38:41.687Z,99.90
2022-08-28T11:41:15.874Z,99.90
2022-08-28T11:43:45.169Z,99.90
2022-08-28T11:46:46.304Z,99.90
2022-08-28T11:49:32.232Z,99.90
2022-08-28T11:52:41.105Z,99.90
2022-08-28T11:55:32.353Z,99.90
2022-08-28T11:58:25.383Z,99.90
2022-08-28T12:00:55.275Z,99.90
2022-08-28T12:03:40.555Z,99.80
2022-08-28T12:06:08.849Z,99.30
2022-08-28T12:08:45.217Z,97.60
2022-08-28T12:11:41.553Z,97.70
2022-08-28T12:14:41.116Z,96.90
2022-08-28T12:17:17.322Z,97.70
2022-08-28T12:19:56.165Z,96.60
2022-08-28T12:22:39.602Z,97.20
2022-08-28T12:25:15.517Z,97.20
2022-08-28T12:27:42.963Z,97.80
2022-08-28T12:30:10.155Z,97.20
2022-08-28T12:32:42.855Z,95.90
2022-08-28T12:35:20.769Z,96.00
2022-08-28T12:37:54.273Z,95.80
2022-08-28T12:40:21.529Z,95.40
2022-08-28T12:42:55.458Z,95.30
2022-08-28T12:45:51.409Z,94.40
2022-08-28T12:48:18.542Z,94.60
2022-08-28T12:50:45.752Z,94.60
2022-08-28T12:53:16.917Z,93.90
2022-08-28T12:55:46.596Z,93.80
2022-08-28T12:58:28.119Z,92.70
2022-08-28T13:01:21.427Z,92.30
2022-08-28T13:03:53.422Z,94.00
2022-08-28T13:06:40.971Z,94.70
2022-08-28T13:09:16.859Z,94.00
2022-08-28T13:11:51.691Z,94.20
2022-08-28T13:14:44.878Z,93.70
2022-08-28T13:17:14.392Z,94.40
2022-08-28T13:19:41.925Z,94.60
2022-08-28T13:22:34.427Z,94.80
2022-08-28T13:25:03.511Z,95.20
2022-08-28T13:27:30.804Z,96.10
2022-08-28T13:30:25.306Z,96.70
2022-08-28T13:32:57.597Z,96.70
2022-08-28T13:35:25.484Z,97.30
2022-08-28T13:38:02.327Z,97.90
2022-08-28T13:43:30.732Z,99.10
2022-08-28T13:45:58.347Z,99.60
2022-08-28T13:48:27.406Z,99.90
2022-08-28T13:51:10.409Z,99.90
2022-08-28T13:53:38.867Z,99.90
2022-08-28T13:56:07.111Z,99.90
2022-08-28T13:58:34.162Z,99.90
2022-08-28T14:01:02.541Z,99.70
2022-08-28T14:03:39.485Z,99.80
2022-08-28T14:06:11.835Z,99.40
2022-08-28T14:08:41.382Z,98.80
2022-08-28T14:11:12.919Z,98.90
2022-08-28T14:13:47.020Z,99.00
2022-08-28T14:16:25.105Z,99.30
2022-08-28T14:18:53.007Z,98.80
2022-08-28T14:21:20.894Z,97.80
2022-08-28T14:23:47.949Z,97.50
2022-08-28T14:26:14.973Z,98.20
2022-08-28T14:28:42.506Z,98.40
2022-08-28T14:31:14.271Z,97.20
2022-08-28T14:33:45.056Z,97.70
2022-08-28T14:36:24.796Z,96.00
2022-08-28T14:38:54.398Z,97.10
2022-08-28T14:41:25.549Z,97.10
2022-08-28T14:43:53.951Z,97.00
2022-08-28T14:46:24.523Z,97.00
2022-08-28T14:48:52.039Z,95.90
2022-08-28T14:51:19.406Z,96.50
2022-08-28T14:53:47.409Z,96.30
2022-08-28T14:56:14.940Z,95.10
2022-08-28T14:58:42.064Z,95.90
2022-08-28T15:01:09.453Z,94.10
2022-08-28T15:03:37.017Z,95.30
2022-08-28T15:06:09.992Z,94.30
2022-08-28T15:08:37.908Z,95.60
2022-08-28T15:11:09.949Z,94.90
2022-08-28T15:13:37.990Z,95.80
2022-08-28T15:16:15.611Z,95.90
2022-08-28T15:18:45.733Z,95.60
2022-08-28T15:21:42.195Z,96.40
2022-08-28T15:24:10.171Z,97.00
2022-08-28T15:26:38.111Z,97.10
2022-08-28T15:29:07.276Z,97.10
2022-08-28T15:31:41.385Z,96.80
2022-08-28T15:34:13.564Z,96.30
2022-08-28T15:36:42.640Z,96.20
2022-08-28T15:39:29.630Z,97.00
2022-08-28T15:41:57.752Z,97.00
2022-08-28T15:44:24.835Z,96.50
2022-08-28T15:46:58.116Z,96.20
2022-08-28T15:49:27.096Z,96.60
2022-08-28T15:51:54.133Z,96.30
2022-08-28T15:54:22.809Z,96.40
2022-08-28T15:56:52.712Z,97.30
2022-08-28T15:59:21.521Z,97.80
2022-08-28T16:01:51.198Z,97.90
2022-08-28T16:04:18.457Z,97.80
2022-08-28T16:06:46.159Z,97.50
2022-08-28T16:09:13.886Z,98.10
2022-08-28T16:11:43.965Z,98.30
2022-08-28T16:14:14.382Z,98.30
2022-08-28T16:16:49.067Z,98.90
2022-08-28T16:19:18.040Z,98.60
2022-08-28T16:21:45.186Z,99.00
2022-08-28T16:24:14.605Z,99.20
2022-08-28T16:26:41.679Z,98.90
2022-08-28T16:29:08.765Z,99.20
2022-08-28T16:31:36.080Z,99.40
2022-08-28T16:34:04.369Z,99.20
2022-08-28T16:36:32.002Z,99.60
2022-08-28T16:39:00.551Z,99.60
2022-08-28T16:41:32.201Z,98.70
2022-08-28T16:43:59.420Z,98.60
2022-08-28T16:46:28.046Z,99.00
2022-08-28T16:48:55.361Z,98.90
2022-08-28T16:51:26.894Z,99.90
2022-08-28T16:53:54.543Z,99.90
2022-08-28T16:56:23.930Z,99.90
2022-08-28T16:58:53.124Z,99.80
2022-08-28T17:01:24.035Z,99.90
2022-08-28T17:03:53.439Z,99.90
2022-08-28T17:06:24.510Z,99.90
2022-08-28T17:08:56.724Z,99.90
2022-08-28T17:11:26.320Z,99.90
2022-08-28T17:13:53.752Z,99.90
2022-08-28T17:16:22.124Z,99.90
2022-08-28T17:18:52.413Z,99.90
2022-08-28T17:21:41.022Z,99.90
2022-08-28T17:24:09.729Z,99.90
2022-08-28T17:26:36.745Z,99.90
2022-08-28T17:29:05.034Z,99.90
2022-08-28T17:31:32.482Z,99.90
2022-08-28T17:33:59.683Z,99.90
2022-08-28T17:36:33.195Z,99.90
2022-08-28T17:39:04.226Z,99.90
2022-08-28T17:41:33.902Z,99.90
2022-08-28T17:44:02.664Z,99.90
2022-08-28T17:46:33.974Z,99.90
2022-08-28T17:49:05.079Z,99.90
2022-08-28T17:51:42.161Z,99.90
2022-08-28T17:54:15.874Z,99.90
2022-08-28T17:56:43.177Z,99.90
2022-08-28T17:59:11.656Z,99.90
2022-08-28T18:01:39.367Z,99.90
2022-08-28T18:04:07.150Z,99.90
2022-08-28T18:06:35.126Z,99.90
2022-08-28T18:09:02.278Z,99.90
2022-08-28T18:11:29.386Z,99.90
2022-08-28T18:13:56.961Z,99.90
2022-08-28T18:16:28.890Z,99.90
2022-08-28T18:18:58.889Z,99.90
2022-08-28T18:21:26.017Z,99.90
2022-08-28T18:23:53.107Z,99.90
2022-08-28T18:26:20.448Z,99.90
2022-08-28T18:28:47.664Z,99.90
2022-08-28T18:31:14.944Z,99.90
2022-08-28T18:33:42.108Z,99.90
2022-08-28T18:36:12.190Z,99.90
2022-08-28T18:38:40.246Z,99.90
2022-08-28T18:41:08.665Z,99.90
2022-08-28T18:43:36.884Z,99.90
2022-08-28T18:46:05.929Z,99.90
2022-08-28T18:48:33.300Z,99.90
2022-08-28T18:51:00.652Z,99.90
2022-08-28T18:53:29.065Z,99.90
2022-08-28T18:55:56.344Z,99.90
2022-08-28T18:58:27.925Z,99.90
2022-08-28T19:00:55.394Z,99.90
2022-08-28T19:03:23.017Z,99.90
2022-08-28T19:05:52.022Z,99.90
2022-08-28T19:08:19.205Z,99.90
2022-08-28T19:10:46.805Z,99.90
2022-08-28T19:13:14.203Z,99.90
2022-08-28T19:15:41.712Z,99.90
2022-08-28T19:18:09.113Z,99.90
2022-08-28T19:20:36.211Z,99.90
2022-08-28T19:23:03.320Z,99.90
2022-08-28T19:25:31.236Z,99.90
2022-08-28T19:28:00.266Z,99.90
2022-08-28T19:30:33.746Z,99.90
2022-08-28T19:33:04.404Z,99.90
2022-08-28T19:35:31.886Z,99.90
2022-08-28T19:37:59.054Z,99.90
2022-08-28T19:40:27.492Z,99.90
2022-08-28T19:42:54.885Z,99.90
2022-08-28T19:45:22.443Z,99.90
2022-08-28T19:47:49.528Z,99.90
2022-08-28T19:50:16.937Z,99.90
2022-08-28T19:52:45.488Z,99.90
2022-08-28T19:55:25.603Z,99.90
2022-08-28T19:57:53.178Z,99.90
2022-08-28T20:00:29.362Z,99.90
2022-08-28T20:02:57.402Z,99.90
2022-08-28T20:05:25.165Z,99.90
2022-08-28T20:07:52.477Z,99.90
2022-08-28T20:10:19.866Z,99.90
2022-08-28T20:12:48.563Z,99.90
2022-08-28T20:15:17.902Z,99.90
2022-08-28T20:17:50.024Z,99.90
2022-08-28T20:20:24.589Z,99.90
2022-08-28T20:22:54.344Z,99.90
2022-08-28T20:25:21.908Z,99.90
2022-08-28T20:27:49.010Z,99.90
2022-08-28T20:30:17.235Z,99.90
2022-08-28T20:32:44.343Z,99.90
2022-08-28T20:35:13.313Z,99.90
2022-08-28T20:37:45.593Z,99.90
2022-08-28T20:40:18.805Z,99.90
2022-08-28T20:42:46.744Z,99.90
2022-08-28T20:45:15.459Z,99.90
2022-08-28T20:47:42.957Z,99.90
2022-08-28T20:50:11.246Z,99.90
2022-08-28T20:52:38.751Z,99.90
2022-08-28T20:55:08.142Z,99.90
2022-08-28T20:57:35.834Z,99.90
2022-08-28T21:00:08.039Z,99.90
2022-08-28T21:02:35.998Z,99.90
2022-08-28T21:05:03.907Z,99.90
2022-08-28T21:07:31.379Z,99.90
2022-08-28T21:10:05.679Z,99.90
2022-08-28T21:12:39.237Z,99.90
2022-08-28T21:15:09.322Z,99.90
2022-08-28T21:17:36.803Z,99.90
2022-08-28T21:20:10.478Z,99.90
2022-08-28T21:22:38.369Z,99.90
2022-08-28T21:25:08.550Z,99.90
2022-08-28T21:27:36.514Z,99.90
2022-08-28T21:30:05.695Z,99.90
2022-08-28T21:32:34.364Z,99.90
2022-08-28T21:35:03.582Z,99.90
2022-08-28T21:37:31.297Z,99.90
2022-08-28T21:39:59.693Z,99.90
2022-08-28T21:42:28.198Z,99.90
2022-08-28T21:44:55.675Z,99.90
2022-08-28T21:47:23.983Z,99.90
2022-08-28T21:49:54.454Z,99.90
2022-08-28T21:52:23.671Z,99.90
2022-08-28T21:54:56.459Z,99.90
2022-08-28T21:57:24.925Z,99.90
2022-08-28T21:59:52.150Z,99.90
2022-08-28T22:02:19.391Z,99.90
2022-08-28T22:04:46.752Z,99.90
2022-08-28T22:07:14.258Z,99.90
2022-08-28T22:09:41.546Z,99.90
2022-08-28T22:12:09.358Z,99.90
2022-08-28T22:14:36.934Z,99.90
2022-08-28T22:17:10.182Z,99.90
2022-08-28T22:19:38.766Z,99.90
2022-08-28T22:22:24.366Z,99.90
2022-08-28T22:24:51.730Z,99.90
2022-08-28T22:27:19.014Z,99.90
2022-08-28T22:29:46.175Z,99.90
2022-08-28T22:32:13.293Z,99.90
2022-08-28T22:34:43.247Z,99.90
2022-08-28T22:37:14.622Z,99.90
2022-08-28T22:39:43.181Z,99.90
2022-08-28T22:42:10.576Z,99.90
2022-08-28T22:44:38.608Z,99.90
2022-08-28T22:47:06.464Z,99.90
2022-08-28T22:49:34.051Z,99.90
2022-08-28T22:52:03.841Z,99.90
2022-08-28T22:54:33.618Z,99.90
2022-08-28T22:57:00.894Z,99.90
2022-08-28T22:59:31.682Z,99.90
2022-08-28T23:01:58.946Z,99.90
2022-08-28T23:04:26.665Z,99.90
2022-08-28T23:06:53.914Z,99.90
2022-08-28T23:09:21.006Z,99.90
2022-08-28T23:11:49.614Z,99.90
2022-08-28T23:14:16.988Z,99.90
2022-08-28T23:16:44.292Z,99.90
2022-08-28T23:19:13.372Z,99.90
2022-08-28T23:21:43.512Z,99.90
2022-08-28T23:24:11.811Z,99.90
2022-08-28T23:26:38.856Z,99.90
2022-08-28T23:29:06.013Z,99.90
2022-08-28T23:31:33.163Z,99.90
2022-08-28T23:34:00.415Z,99.90
2022-08-28T23:36:27.577Z,99.90
2022-08-28T23:38:54.902Z,99.90
2022-08-28T23:41:22.266Z,99.90
2022-08-28T23:43:49.370Z,99.90
2022-08-28T23:46:18.148Z,99.90
2022-08-28T23:48:46.205Z,99.90
2022-08-28T23:51:17.423Z,99.90
2022-08-28T23:53:45.800Z,99.90
2022-08-28T23:56:14.875Z,99.90
2022-08-28T23:58:43.080Z,99.90
